createdAt,value
2022-12-13T00:03:05.622Z,12
2022-12-13T00:08:40.866Z,11.9
2022-12-13T00:14:15.780Z,11.9
2022-12-13T00:19:51.134Z,11.9
2022-12-13T00:25:26.269Z,12
2022-12-13T00:31:13.725Z,12.2
2022-12-13T00:37:37.437Z,12.3
2022-12-13T00:43:12.338Z,12.3
2022-12-13T00:48:47.296Z,12.4
2022-12-13T00:54:22.351Z,12.5
2022-12-13T01:00:03.246Z,12.5
2022-12-13T01:06:13.484Z,12.6
2022-12-13T01:11:53.055Z,12.7
2022-12-13T01:17:36.662Z,12.8
2022-12-13T01:23:15.585Z,12.9
2022-12-13T01:28:50.713Z,13
2022-12-13T01:34:26.956Z,13
2022-12-13T01:40:02.521Z,13.1
2022-12-13T01:45:52.201Z,13.1
2022-12-13T01:51:28.515Z,13.2
2022-12-13T01:57:03.754Z,13.2
2022-12-13T02:02:39.206Z,13.2
2022-12-13T02:08:16.867Z,13.2
2022-12-13T02:13:53.799Z,13.2
2022-12-13T02:19:33.876Z,13.2
2022-12-13T02:25:09.373Z,13.3
2022-12-13T02:30:44.539Z,13.3
2022-12-13T02:36:25.721Z,13.3
2022-12-13T02:42:00.785Z,13.3
2022-12-13T02:47:36.267Z,13.3
2022-12-13T02:53:12.251Z,13.4
2022-12-13T02:58:47.062Z,13.5
2022-12-13T03:04:26.184Z,13.5
2022-12-13T03:10:02.093Z,13.5
2022-12-13T03:15:37.398Z,13.5
2022-12-13T03:21:13.387Z,13.5
2022-12-13T03:26:49.637Z,13.5
2022-12-13T03:32:25.095Z,13.5
2022-12-13T03:38:00.142Z,13.4
2022-12-13T03:43:35.295Z,13.3
2022-12-13T03:49:15.312Z,13.3
2022-12-13T03:54:52.787Z,13.3
2022-12-13T04:00:28.279Z,13.3
2022-12-13T04:06:03.469Z,13.3
2022-12-13T04:11:42.438Z,13.3
2022-12-13T04:17:18.638Z,13.4
2022-12-13T04:22:53.787Z,13.4
2022-12-13T04:28:29.653Z,13.4
2022-12-13T04:34:05.067Z,13.4
2022-12-13T04:39:39.936Z,13.4
2022-12-13T04:45:22.906Z,13.4
2022-12-13T04:50:58.554Z,13.4
2022-12-13T04:56:36.813Z,13.4
2022-12-13T05:02:12.007Z,13.4
2022-12-13T05:08:00.074Z,13.4
2022-12-13T05:13:36.085Z,13.4
2022-12-13T05:19:11.969Z,13.4
2022-12-13T05:24:47.384Z,13.4
2022-12-13T05:30:23.109Z,13.4
2022-12-13T05:36:01.383Z,13.4
2022-12-13T05:41:37.546Z,13.4
2022-12-13T05:47:12.505Z,13.4
2022-12-13T05:52:48.266Z,13.4
2022-12-13T05:58:23.611Z,13.4
2022-12-13T06:03:58.485Z,13.4
2022-12-13T06:09:39.852Z,13.4
2022-12-13T06:15:22.143Z,13.4
2022-12-13T06:21:09.766Z,13.4
2022-12-13T06:26:45.531Z,13.4
2022-12-13T06:32:21.815Z,13.4
2022-12-13T06:38:01.045Z,13.4
2022-12-13T06:44:07.197Z,13.4
2022-12-13T06:49:43.825Z,13.3
2022-12-13T06:55:23.777Z,13.4
2022-12-13T07:00:59.688Z,13.5
2022-12-13T07:06:37.998Z,13.5
2022-12-13T07:12:12.913Z,13.5
2022-12-13T07:17:47.858Z,13.6
2022-12-13T07:23:24.288Z,13.6
2022-12-13T07:29:00.172Z,13.6
2022-12-13T07:34:35.009Z,13.7
2022-12-13T07:40:19.789Z,13.7
2022-12-13T07:45:54.933Z,13.4
2022-12-13T07:51:31.256Z,13.2
2022-12-13T07:57:10.519Z,13.3
2022-12-13T08:02:45.705Z,13.3
2022-12-13T08:08:21.676Z,13.2
2022-12-13T08:14:08.116Z,13.3
2022-12-13T08:19:43.303Z,13.4
2022-12-13T08:25:18.563Z,13.5
2022-12-13T08:30:57.515Z,13.7
2022-12-13T08:36:33.232Z,13.7
2022-12-13T08:42:15.622Z,13.9
2022-12-13T08:48:04.281Z,14.3
2022-12-13T08:53:40.900Z,14.6
2022-12-13T08:59:20.581Z,14.6
2022-12-13T09:04:55.338Z,14.8
2022-12-13T09:10:37.984Z,15.1
2022-12-13T09:16:22.791Z,14.9
2022-12-13T09:22:02.363Z,14.7
2022-12-13T09:27:39.493Z,14.7
2022-12-13T09:33:17.520Z,14.9
2022-12-13T09:39:17.346Z,15
2022-12-13T09:45:02.355Z,15.2
2022-12-13T09:50:44.357Z,15.2
2022-12-13T09:57:44.991Z,15.3
2022-12-13T10:03:25.382Z,15.5
2022-12-13T10:09:01.851Z,15.7
2022-12-13T10:14:45.593Z,15.8
2022-12-13T10:20:25.555Z,15.6
2022-12-13T10:26:02.710Z,15.5
2022-12-13T10:31:39.420Z,15.4
2022-12-13T10:37:17.851Z,15.6
2022-12-13T10:43:00.979Z,15.9
2022-12-13T10:48:38.517Z,16.3
2022-12-13T10:54:14.869Z,16.4
2022-12-13T11:00:23.620Z,16.3
2022-12-13T11:05:59.333Z,16.2
2022-12-13T11:11:34.618Z,16.3
2022-12-13T11:17:09.778Z,16.4
2022-12-13T11:22:44.994Z,16.5
2022-12-13T11:28:26.058Z,16.7
2022-12-13T11:34:03.902Z,16.7
2022-12-13T11:39:39.173Z,16.6
2022-12-13T11:45:22.700Z,16.4
2022-12-13T11:50:58.830Z,16.6
2022-12-13T11:56:33.949Z,16.7
2022-12-13T12:02:16.636Z,16.7
2022-12-13T12:08:28.167Z,16.4
2022-12-13T12:14:22.832Z,15.8
2022-12-13T12:20:08.218Z,15.6
2022-12-13T12:25:43.971Z,15.5
2022-12-13T12:31:50.476Z,15.5
2022-12-13T12:37:27.694Z,15.5
2022-12-13T12:43:15.191Z,15.5
2022-12-13T12:49:51.703Z,15.5
2022-12-13T12:55:35.797Z,15.5
2022-12-13T13:01:20.857Z,15.6
2022-12-13T13:07:22.798Z,15.6
2022-12-13T13:13:01.910Z,15.5
2022-12-13T13:18:58.448Z,15.5
2022-12-13T13:24:34.930Z,15.5
2022-12-13T13:30:10.935Z,15.4
2022-12-13T13:35:46.349Z,15.4
2022-12-13T13:41:21.457Z,15.4
2022-12-13T13:47:32.123Z,15.5
2022-12-13T13:53:05.213Z,15.4
2022-12-13T13:58:55.492Z,15.4
2022-12-13T14:04:32.089Z,15.4
2022-12-13T14:10:31.224Z,15.4
2022-12-13T14:16:20.207Z,15.4
2022-12-13T14:22:11.886Z,15.4
2022-12-13T14:27:50.170Z,15.5
2022-12-13T14:33:25.592Z,15.5
2022-12-13T14:39:05.952Z,15.5
2022-12-13T14:45:01.981Z,15.5
2022-12-13T14:50:37.288Z,15.5
2022-12-13T14:56:27.370Z,15.4
2022-12-13T15:02:07.753Z,15.4
2022-12-13T15:07:48.840Z,15.4
2022-12-13T15:13:24.188Z,15.4
2022-12-13T15:19:06.146Z,15.4
2022-12-13T15:25:23.610Z,15.4
2022-12-13T15:31:15.748Z,15.3
2022-12-13T15:37:42.531Z,15.3
2022-12-13T15:43:20.785Z,15.3
2022-12-13T15:49:17.880Z,15.3
2022-12-13T15:54:50.683Z,15.2
2022-12-13T16:00:37.559Z,15.2
2022-12-13T16:06:13.849Z,15.1
2022-12-13T16:11:49.227Z,15.1
2022-12-13T16:17:24.827Z,15.1
2022-12-13T16:23:01.186Z,15
2022-12-13T16:29:02.775Z,15
2022-12-13T16:35:00.775Z,15
2022-12-13T16:40:43.968Z,15
2022-12-13T16:47:47.994Z,15
2022-12-13T16:53:25.432Z,15
2022-12-13T16:59:04.418Z,15
2022-12-13T17:04:49.426Z,14.9
2022-12-13T17:10:25.407Z,14.9
2022-12-13T17:16:00.311Z,14.8
2022-12-13T17:21:36.547Z,14.7
2022-12-13T17:27:16.919Z,14.6
2022-12-13T17:32:58.927Z,14.6
2022-12-13T17:38:36.864Z,14.6
2022-12-13T17:44:21.725Z,14.7
2022-12-13T17:49:57.947Z,14.7
2022-12-13T17:55:36.931Z,14.6
2022-12-13T18:01:15.083Z,14.6
2022-12-13T18:07:03.014Z,14.7
2022-12-13T18:12:38.252Z,14.7
2022-12-13T18:18:16.169Z,14.7
2022-12-13T18:23:54.859Z,14.7
2022-12-13T18:29:55.001Z,14.7
2022-12-13T18:35:35.604Z,14.6
2022-12-13T18:41:10.876Z,14.6
2022-12-13T18:47:07.832Z,14.6
2022-12-13T18:52:40.665Z,14.6
2022-12-13T18:58:16.693Z,14.6
2022-12-13T19:03:52.066Z,14.5
2022-12-13T19:09:32.376Z,14.6
2022-12-13T19:15:12.822Z,14.5
2022-12-13T19:20:48.767Z,14.5
2022-12-13T19:26:26.822Z,14.5
2022-12-13T19:32:03.492Z,14.4
2022-12-13T19:37:39.777Z,14.4
2022-12-13T19:43:17.663Z,14.4
2022-12-13T19:49:14.446Z,14.4
2022-12-13T19:54:48.340Z,14.4
2022-12-13T20:00:24.282Z,14.4
2022-12-13T20:06:05.547Z,14.4
2022-12-13T20:11:46.167Z,14.4
2022-12-13T20:17:36.561Z,14.4
2022-12-13T20:23:12.115Z,14.4
2022-12-13T20:28:51.170Z,14.4
2022-12-13T20:34:34.833Z,14.4
2022-12-13T20:40:11.937Z,14.4
2022-12-13T20:46:03.145Z,14.4
2022-12-13T20:51:38.369Z,14.4
2022-12-13T20:57:19.567Z,14.4
2022-12-13T21:02:55.479Z,14.4
2022-12-13T21:08:32.034Z,14.3
2022-12-13T21:14:13.579Z,14.3
2022-12-13T21:20:01.410Z,14.3
2022-12-13T21:25:39.327Z,14.2
2022-12-13T21:31:24.408Z,14.2
2022-12-13T21:37:06.518Z,14.2
2022-12-13T21:42:42.595Z,14.1
2022-12-13T21:48:42.504Z,14.1
2022-12-13T21:54:22.009Z,14.1
2022-12-13T22:00:06.723Z,14.2
2022-12-13T22:05:47.028Z,14.2
2022-12-13T22:11:22.027Z,14.2
2022-12-13T22:17:08.097Z,14.1
2022-12-13T22:23:10.950Z,14.1
2022-12-13T22:28:54.833Z,14.1
2022-12-13T22:34:30.007Z,14.1
2022-12-13T22:40:13.912Z,14
2022-12-13T22:45:49.300Z,14
2022-12-13T22:51:25.298Z,14
2022-12-13T22:57:10.746Z,13.9
2022-12-13T23:02:48.219Z,13.9
2022-12-13T23:08:25.082Z,14
2022-12-13T23:14:03.644Z,14
2022-12-13T23:19:41.879Z,14
2022-12-13T23:25:30.349Z,14
2022-12-13T23:31:05.537Z,13.9
2022-12-13T23:36:44.125Z,13.9
2022-12-13T23:42:23.936Z,14
2022-12-13T23:49:05.160Z,14
2022-12-13T23:54:37.858Z,14
